Time;durP1;ratioP1;P1;durP2;ratioP2;P2;SDS_P1;SDS_P2;PMS_P1;PMS_P2;Temp;Humidity;BMP_temperature;BMP_pressure;BME280_temperature;BME280_humidity;BME280_pressure;Samples;Min_cycle;Max_cycle;Signal;HPM_P1;HPM_P2
2022/10/11 00:10:28;;;;;;;63.65;11.50;;;;;;;14.63;92.04;100448.91;5113239;27;20486;-86
2022/10/11 00:13:07;;;;;;;36.20;11.57;;;;;;;14.68;91.89;100457.31;5057472;28;20719;-86
2022/10/11 00:26:11;;;;;;;31.88;12.60;;;;;;;14.59;92.71;100461.75;5116091;27;21116;-86
2022/10/11 00:41:54;;;;;;;27.13;11.50;;;;;;;14.62;93.16;100469.47;6197948;22;1304115;-86
2022/10/11 00:44:32;;;;;;;32.40;12.82;;;;;;;14.70;92.44;100466.88;5053478;28;20753;-86
2022/10/11 00:57:39;;;;;;;34.45;12.27;;;;;;;14.62;93.07;100479.31;5138156;27;20112;-86
2022/10/11 01:00:18;;;;;;;40.45;12.40;;;;;;;14.73;92.54;100484.47;5052473;28;20760;-86
2022/10/11 01:13:23;;;;;;;42.58;12.38;;;;;;;14.65;92.79;100487.88;5140350;27;20121;-86
2022/10/11 01:26:42;;;;;;;30.50;11.35;;;;;;;14.62;92.60;100493.50;5154236;27;20730;-86
2022/10/11 01:29:34;;;;;;;35.97;12.93;;;;;;;14.61;92.71;100493.69;5056001;28;20725;-86
2022/10/11 01:42:38;;;;;;;31.15;11.60;;;;;;;14.62;93.03;100496.19;5115191;27;20726;-85
2022/10/11 01:45:17;;;;;;;34.42;13.07;;;;;;;14.63;92.88;100492.53;5049584;28;20736;-86
2022/10/11 01:48:03;;;;;;;35.60;15.05;;;;;;;14.63;92.97;100497.03;5051549;28;20721;-86
2022/10/11 01:50:47;;;;;;;37.28;13.35;;;;;;;14.68;92.73;100500.09;5050650;28;20740;-85
2022/10/11 01:53:28;;;;;;;42.78;13.85;;;;;;;14.71;92.36;100499.84;5051288;27;20732;-86
2022/10/11 01:56:30;;;;;;;73.28;14.35;;;;;;;14.54;92.54;100491.56;5060888;28;20716;-86
2022/10/11 01:59:18;;;;;;;37.72;10.95;;;;;;;14.65;92.00;100490.53;5057570;28;20740;-85
2022/10/11 02:02:49;;;;;;;31.48;11.70;;;;;;;14.50;91.87;100490.16;5131423;27;20130;-86
2022/10/11 02:05:30;;;;;;;30.63;10.18;;;;;;;14.55;91.86;100500.41;5073171;27;20714;-86
2022/10/11 02:08:33;;;;;;;28.48;10.57;;;;;;;14.54;91.25;100499.59;5100212;27;20725;-85
2022/10/11 02:11:22;;;;;;;29.17;10.10;;;;;;;14.55;91.19;100500.41;5086011;27;21259;-85
2022/10/11 02:14:09;;;;;;;41.08;12.73;;;;;;;14.54;91.70;100496.91;5094410;27;20710;-86
2022/10/11 02:16:56;;;;;;;29.80;11.13;;;;;;;14.63;91.67;100497.03;5093658;27;20495;-86
2022/10/11 02:19:37;;;;;;;25.25;10.50;;;;;;;14.63;91.14;100502.38;5079653;27;20734;-86
2022/10/11 02:22:27;;;;;;;55.53;12.23;;;;;;;14.52;91.06;100506.03;5077929;27;20734;-86
2022/10/11 02:25:08;;;;;;;39.42;12.20;;;;;;;14.61;90.85;100504.38;5054579;28;21150;-86
2022/10/11 02:27:47;;;;;;;26.55;10.50;;;;;;;14.62;91.15;100495.34;5093904;27;20765;-86
2022/10/11 02:30:25;;;;;;;24.98;11.57;;;;;;;14.64;91.29;100498.72;5051480;28;20719;-85
2022/10/11 02:33:04;;;;;;;30.15;11.65;;;;;;;14.65;91.05;100495.88;5076794;27;20727;-85
2022/10/11 02:35:46;;;;;;;26.55;11.48;;;;;;;14.59;91.16;100498.31;5135105;27;20711;-86
2022/10/11 02:38:27;;;;;;;26.25;11.82;;;;;;;14.63;91.41;100494.34;5057130;28;20732;-85
2022/10/11 02:41:14;;;;;;;39.15;14.55;;;;;;;14.58;91.70;100499.28;5079598;27;20723;-85
2022/10/11 02:43:59;;;;;;;35.17;14.93;;;;;;;14.60;92.10;100497.31;5059627;28;20826;-86
2022/10/11 02:46:39;;;;;;;32.20;14.23;;;;;;;14.69;91.84;100504.47;5055193;28;21064;-85
2022/10/11 02:59:41;;;;;;;35.05;12.68;;;;;;;14.53;92.80;100507.75;5127373;27;20111;-87
2022/10/11 03:02:20;;;;;;;39.00;13.35;;;;;;;14.60;92.33;100514.19;5074609;27;20717;-86
2022/10/11 03:04:58;;;;;;;43.53;13.85;;;;;;;14.58;92.68;100509.97;5053576;28;20733;-85
2022/10/11 03:07:36;;;;;;;48.20;17.23;;;;;;;14.61;92.36;100509.72;5099868;27;20713;-85
2022/10/11 03:10:14;;;;;;;43.30;16.17;;;;;;;14.64;92.24;100512.94;5042414;28;21268;-85
2022/10/11 03:12:52;;;;;;;41.63;16.73;;;;;;;14.63;92.64;100519.28;5047887;28;20724;-86
2022/10/11 03:15:31;;;;;;;42.95;15.10;;;;;;;14.68;92.44;100519.69;5094673;27;20715;-85
2022/10/11 03:28:33;;;;;;;42.00;14.52;;;;;;;14.53;93.46;100529.16;5133788;27;20120;-86
2022/10/11 03:31:12;;;;;;;48.00;17.10;;;;;;;14.53;93.45;100529.97;5086654;27;20733;-85
2022/10/11 03:33:50;;;;;;;44.53;16.48;;;;;;;14.57;92.88;100538.53;5053813;28;20719;-86
2022/10/11 03:36:29;;;;;;;55.47;17.35;;;;;;;14.65;92.28;100537.81;5043066;28;20733;-85
2022/10/11 03:39:07;;;;;;;47.92;17.80;;;;;;;14.65;92.59;100543.16;5060943;27;20743;-85
2022/10/11 03:41:45;;;;;;;36.72;16.52;;;;;;;14.66;92.55;100537.69;5053052;28;21610;-85
2022/10/11 03:44:23;;;;;;;36.45;17.27;;;;;;;14.63;92.76;100540.66;5050267;28;20732;-85
2022/10/11 03:47:01;;;;;;;40.95;16.35;;;;;;;14.66;92.38;100542.19;5089582;27;20793;-86
2022/10/11 03:49:40;;;;;;;32.53;15.02;;;;;;;14.67;92.28;100546.53;5048464;28;20721;-85
2022/10/11 04:02:45;;;;;;;31.40;13.45;;;;;;;14.51;92.42;100545.28;5133521;27;20718;-86
2022/10/11 04:05:23;;;;;;;36.88;12.68;;;;;;;14.56;92.43;100546.72;5053123;28;21692;-85
2022/10/11 04:08:01;;;;;;;21.33;10.95;;;;;;;14.59;92.03;100546.44;5092863;27;20711;-86
2022/10/11 04:10:39;;;;;;;24.95;12.18;;;;;;;14.59;92.08;100549.09;5077278;28;20710;-86
2022/10/11 04:13:17;;;;;;;33.42;13.05;;;;;;;14.59;92.30;100546.44;5110961;27;20741;-86
2022/10/11 04:15:56;;;;;;;24.50;12.88;;;;;;;14.62;91.90;100560.34;5090947;27;20716;-86
2022/10/11 04:18:34;;;;;;;36.17;13.60;;;;;;;14.61;92.43;100557.81;5101583;27;20712;-86
2022/10/11 04:21:12;;;;;;;35.75;14.05;;;;;;;14.61;92.21;100564.00;5058913;28;20752;-85
2022/10/11 04:23:50;;;;;;;38.33;15.80;;;;;;;14.61;92.54;100557.81;5043277;28;20749;-86
2022/10/11 04:26:29;;;;;;;41.05;14.48;;;;;;;14.62;92.35;100556.81;5094107;27;20726;-86
2022/10/11 04:29:07;;;;;;;49.92;16.77;;;;;;;14.60;92.66;100569.47;5091165;27;20721;-86
2022/10/11 04:31:45;;;;;;;37.90;15.80;;;;;;;14.55;92.83;100564.56;5057464;28;20725;-86
2022/10/11 04:34:23;;;;;;;41.40;15.57;;;;;;;14.56;92.56;100566.25;5094661;27;20837;-85
2022/10/11 04:47:26;;;;;;;37.75;16.15;;;;;;;14.31;94.37;100579.19;5138000;27;20475;-86
2022/10/11 04:50:05;;;;;;;40.53;16.25;;;;;;;14.42;93.77;100582.69;5064110;27;20697;-85
2022/10/11 04:52:43;;;;;;;41.72;15.88;;;;;;;14.39;93.88;100583.81;5057289;28;20728;-85
2022/10/11 04:55:21;;;;;;;33.80;14.38;;;;;;;14.46;93.31;100579.59;5083110;27;20709;-85
2022/10/11 05:08:24;;;;;;;38.83;14.00;;;;;;;14.44;93.79;100591.41;5098528;27;20116;-86
2022/10/11 05:11:05;;;;;;;35.42;13.77;;;;;;;14.51;93.41;100587.19;5087819;27;20854;-85
2022/10/11 05:13:44;;;;;;;30.13;13.15;;;;;;;14.49;93.69;100587.34;5046112;28;20717;-85
2022/10/11 05:16:23;;;;;;;33.47;13.95;;;;;;;14.54;93.43;100589.63;5055236;28;20711;-85
2022/10/11 05:19:00;;;;;;;40.47;13.98;;;;;;;14.53;93.40;100599.47;5059111;28;20844;-85
2022/10/11 05:21:39;;;;;;;40.95;13.57;;;;;;;14.54;93.44;100601.16;5058155;28;20736;-85
2022/10/11 05:24:17;;;;;;;46.00;13.85;;;;;;;14.52;93.62;100599.56;5046690;28;20815;-85
2022/10/11 05:26:55;;;;;;;58.25;13.77;;;;;;;14.50;93.60;100604.19;5053112;27;20712;-85
2022/10/11 05:29:40;;;;;;;40.97;13.43;;;;;;;14.56;92.97;100613.53;5044733;28;20700;-85
2022/10/11 05:32:18;;;;;;;32.60;14.35;;;;;;;14.56;92.98;100617.03;5049153;28;20748;-85
2022/10/11 05:34:56;;;;;;;37.55;14.63;;;;;;;14.58;92.43;100615.09;5097626;27;21245;-85
2022/10/11 05:37:34;;;;;;;36.20;14.15;;;;;;;14.60;92.34;100622.94;5045930;28;21059;-85
2022/10/11 05:40:13;;;;;;;39.80;17.95;;;;;;;14.62;91.55;100626.31;5043414;28;21087;-85
2022/10/11 05:42:51;;;;;;;46.85;19.67;;;;;;;14.62;90.87;100626.31;5058614;28;21051;-85
2022/10/11 05:45:31;;;;;;;50.25;21.60;;;;;;;14.61;89.15;100632.66;5043394;28;21087;-85
2022/10/11 05:48:09;;;;;;;54.00;21.85;;;;;;;14.60;88.38;100631.78;5057291;28;20733;-85
2022/10/11 05:50:47;;;;;;;52.40;21.27;;;;;;;14.66;88.06;100643.78;5042308;28;20737;-85
2022/10/11 05:53:25;;;;;;;53.33;21.90;;;;;;;14.65;89.01;100642.91;5045783;28;20740;-85
2022/10/11 05:56:04;;;;;;;46.83;21.17;;;;;;;14.62;89.91;100648.53;5055645;28;20735;-85
2022/10/11 05:58:41;;;;;;;50.40;20.42;;;;;;;14.60;90.26;100658.53;5055078;28;20727;-85
2022/10/11 06:01:25;;;;;;;54.22;20.73;;;;;;;14.59;90.42;100656.00;5056101;28;20756;-85
2022/10/11 06:04:03;;;;;;;61.60;20.63;;;;;;;14.57;90.87;100653.47;5055705;28;20834;-85
2022/10/11 06:06:41;;;;;;;58.00;19.58;;;;;;;14.57;90.86;100661.50;5097442;27;20729;-84
2022/10/11 06:09:19;;;;;;;40.53;19.52;;;;;;;14.60;90.66;100663.03;5103044;27;21650;-85
2022/10/11 06:11:57;;;;;;;53.72;21.63;;;;;;;14.58;90.77;100667.66;5056151;28;20707;-85
2022/10/11 06:14:49;;;;;;;51.50;20.25;;;;;;;14.63;90.65;100673.44;5076183;27;24449;-85
2022/10/11 06:17:41;;;;;;;48.92;19.73;;;;;;;14.67;90.62;100677.53;5077865;27;21427;-85
2022/10/11 06:20:33;;;;;;;46.35;20.90;;;;;;;14.71;90.50;100678.94;5114022;27;24447;-85
2022/10/11 06:23:40;;;;;;;42.42;19.17;;;;;;;14.73;87.51;100682.28;5015460;27;20909;-85
2022/10/11 06:26:35;;;;;;;47.67;20.70;;;;;;;14.69;86.66;100683.56;5139924;27;20674;-85
2022/10/11 06:29:30;;;;;;;44.20;19.85;;;;;;;14.68;87.45;100684.53;5114086;27;20121;-85
2022/10/11 06:32:34;;;;;;;51.53;21.60;;;;;;;14.75;86.91;100691.84;5115154;27;24485;-85
2022/10/11 06:35:06;;;;;;;52.30;20.85;;;;;;;14.74;86.99;100695.53;5098678;28;20059;-85
2022/10/11 06:37:58;;;;;;;47.80;20.25;;;;;;;14.75;86.84;100693.69;5079951;27;24431;-85
2022/10/11 06:41:15;;;;;;;54.63;22.02;;;;;;;14.74;86.18;100700.88;5021830;27;20547;-85
2022/10/11 06:44:11;;;;;;;45.53;21.00;;;;;;;14.85;86.74;100699.88;5176368;27;24782;-85
2022/10/11 06:47:07;;;;;;;47.33;20.92;;;;;;;14.84;86.21;100705.38;5080738;27;24468;-85
2022/10/11 06:50:05;;;;;;;47.60;20.80;;;;;;;14.86;85.52;100706.94;5181802;27;24487;-85
2022/10/11 06:53:14;;;;;;;48.47;21.70;;;;;;;14.84;85.24;100718.75;5118566;27;24574;-85
2022/10/11 06:56:09;;;;;;;44.10;21.58;;;;;;;14.82;85.55;100713.53;5083533;27;24433;-85
2022/10/11 06:59:02;;;;;;;40.83;21.30;;;;;;;14.85;85.76;100712.41;5082598;27;24580;-85
2022/10/11 07:01:59;;;;;;;52.33;22.55;;;;;;;14.92;85.99;100716.22;5079458;27;24561;-85
2022/10/11 07:04:51;;;;;;;47.67;21.98;;;;;;;14.90;86.23;100720.84;5077136;27;25020;-85
2022/10/11 07:07:46;;;;;;;49.38;20.25;;;;;;;14.92;86.60;100726.91;5133049;27;20137;-85
2022/10/11 07:10:47;;;;;;;53.10;22.33;;;;;;;14.91;86.34;100728.75;5072112;27;24481;-85
2022/10/11 07:13:49;;;;;;;45.90;21.15;;;;;;;14.82;85.49;100732.25;5104779;27;24600;-85
2022/10/11 07:16:53;;;;;;;42.70;20.42;;;;;;;14.89;85.83;100736.06;5119009;27;24501;-85
2022/10/11 07:19:48;;;;;;;51.17;22.35;;;;;;;14.90;86.44;100739.56;5182703;27;24460;-85
2022/10/11 07:22:40;;;;;;;50.03;23.92;;;;;;;14.90;86.11;100739.56;5080249;27;24449;-85
2022/10/11 07:25:35;;;;;;;49.05;21.38;;;;;;;14.88;85.35;100737.06;5114972;27;20538;-85
2022/10/11 07:28:30;;;;;;;54.20;20.67;;;;;;;14.92;85.03;100746.47;5078104;27;24766;-85
2022/10/11 07:31:25;;;;;;;48.40;20.88;;;;;;;14.85;84.75;100744.50;5179675;27;24558;-85
2022/10/11 07:34:26;;;;;;;43.67;19.73;;;;;;;14.85;84.57;100758.69;5116135;27;24580;-85
2022/10/11 07:37:21;;;;;;;41.72;20.05;;;;;;;14.92;84.42;100759.00;5180938;27;25024;-84
2022/10/11 07:40:14;;;;;;;46.03;19.15;;;;;;;14.88;83.44;100760.25;5081497;27;24795;-83
2022/10/11 07:43:06;;;;;;;38.28;19.33;;;;;;;14.90;83.02;100759.13;5080158;27;24603;-83
2022/10/11 07:46:02;;;;;;;38.45;18.60;;;;;;;14.92;82.25;100759.84;5118063;27;20526;-83
2022/10/11 07:48:57;;;;;;;42.47;18.30;;;;;;;14.93;82.62;100766.03;5107218;27;24483;-84
2022/10/11 07:51:52;;;;;;;35.20;18.30;;;;;;;14.95;82.93;100764.91;5181541;27;24474;-83
2022/10/11 07:54:56;;;;;;;41.47;20.08;;;;;;;15.00;83.04;100767.16;5121173;27;24465;-83
2022/10/11 07:57:48;;;;;;;43.78;19.02;;;;;;;15.05;82.68;100764.06;5082245;27;24458;-83
2022/10/11 08:00:42;;;;;;;40.40;18.98;;;;;;;15.09;82.85;100768.16;5118896;27;20530;-83
2022/10/11 08:03:38;;;;;;;49.10;19.50;;;;;;;15.15;82.46;100764.88;5180760;27;24688;-84
2022/10/11 08:06:46;;;;;;;40.33;20.00;;;;;;;15.17;82.97;100773.63;5120767;27;24574;-84
2022/10/11 08:09:53;;;;;;;38.60;18.23;;;;;;;15.20;82.86;100765.31;5113654;27;24433;-84
2022/10/11 08:12:48;;;;;;;36.53;18.13;;;;;;;15.19;82.07;100777.84;5175359;27;24432;-83
2022/10/11 08:15:49;;;;;;;35.42;16.75;;;;;;;15.17;81.47;100777.13;5119226;27;24506;-84
2022/10/11 08:18:45;;;;;;;28.73;15.23;;;;;;;15.21;80.44;100783.03;5189328;27;24456;-84
2022/10/11 08:21:40;;;;;;;31.40;16.17;;;;;;;15.17;80.89;100782.50;5174076;27;24455;-83
2022/10/11 08:24:36;;;;;;;32.47;16.35;;;;;;;15.21;81.15;100777.69;5176107;27;24655;-84
2022/10/11 08:27:29;;;;;;;31.25;15.50;;;;;;;15.22;80.84;100778.56;5078407;27;24427;-84
2022/10/11 08:40:54;;;;;;;28.55;13.68;;;;;;;15.18;80.76;100786.00;5126589;27;20570;-84
2022/10/11 08:43:59;;;;;;;30.98;13.15;;;;;;;15.23;80.71;100777.56;5075707;27;24423;-84
2022/10/11 08:47:22;;;;;;;27.88;14.18;;;;;;;15.27;80.08;100776.28;5131817;27;24469;-84
2022/10/11 08:49:50;;;;;;;26.75;13.23;;;;;;;15.36;81.15;100781.59;5088992;28;20488;-84
2022/10/11 08:52:26;;;;;;;26.77;13.45;;;;;;;15.34;80.97;100785.41;5071934;28;20162;-84
2022/10/11 08:55:04;;;;;;;31.40;13.60;;;;;;;15.35;80.71;100785.28;5081382;28;20044;-84
2022/10/11 08:57:34;;;;;;;24.63;12.55;;;;;;;15.40;81.05;100785.69;5067303;28;20454;-84
2022/10/11 09:00:10;;;;;;;33.72;13.43;;;;;;;15.30;80.34;100789.38;5070186;28;20052;-84
2022/10/11 09:02:45;;;;;;;33.92;14.57;;;;;;;15.33;79.86;100794.44;5066925;28;20109;-84
2022/10/11 09:06:07;;;;;;;30.15;13.77;;;;;;;15.26;79.68;100796.84;5079834;28;20039;-84
2022/10/11 09:08:44;;;;;;;26.95;13.75;;;;;;;15.32;80.08;100798.13;5103234;28;20052;-84
2022/10/11 09:11:24;;;;;;;24.67;13.73;;;;;;;15.25;80.41;100797.00;5082396;28;20447;-83
2022/10/11 09:14:29;;;;;;;36.38;13.68;;;;;;;15.19;80.09;100798.41;5082690;28;20045;-84
2022/10/11 09:17:07;;;;;;;25.45;12.10;;;;;;;15.30;80.05;100790.22;5081869;28;20052;-84
2022/10/11 09:19:43;;;;;;;27.35;12.10;;;;;;;15.29;79.82;100801.06;5061181;28;20083;-84
2022/10/11 09:22:38;;;;;;;29.55;12.48;;;;;;;15.17;78.85;100798.53;5067884;28;20055;-83
2022/10/11 09:25:22;;;;;;;30.52;12.68;;;;;;;15.21;78.84;100804.44;5099785;28;20040;-84
2022/10/11 09:27:53;;;;;;;21.55;11.68;;;;;;;15.31;79.61;100794.56;5091324;28;20120;-84
2022/10/11 09:30:29;;;;;;;27.10;12.20;;;;;;;15.32;79.50;100804.31;5083323;28;20109;-84
2022/10/11 09:33:31;;;;;;;21.23;11.43;;;;;;;15.22;79.21;100795.44;5069051;28;20048;-84
2022/10/11 09:35:59;;;;;;;23.73;11.25;;;;;;;15.27;79.71;100801.22;5056694;28;20068;-84
2022/10/11 09:39:04;;;;;;;24.27;11.93;;;;;;;15.19;78.82;100799.25;5051986;28;20076;-84
2022/10/11 09:41:40;;;;;;;19.38;11.57;;;;;;;15.18;78.66;100791.34;5071352;28;20084;-84
2022/10/11 09:44:10;;;;;;;21.98;10.98;;;;;;;15.25;79.35;100787.13;5085142;28;20449;-84
2022/10/11 09:46:40;;;;;;;23.77;11.85;;;;;;;15.32;79.33;100790.94;5076940;28;20044;-84
2022/10/11 09:49:16;;;;;;;24.90;11.45;;;;;;;15.30;79.08;100786.72;5067143;28;20421;-83
2022/10/11 09:51:51;;;;;;;21.15;10.40;;;;;;;15.27;78.44;100789.66;5069195;28;20499;-84
2022/10/11 09:54:26;;;;;;;25.17;11.20;;;;;;;15.36;78.67;100791.47;5092499;28;20098;-84
2022/10/11 09:56:53;;;;;;;27.75;11.32;;;;;;;15.39;79.24;100796.53;5091144;28;20049;-84
2022/10/11 09:59:28;;;;;;;23.23;10.90;;;;;;;15.34;78.11;100797.00;5070968;28;20048;-84
2022/10/11 10:02:18;;;;;;;26.27;11.05;;;;;;;15.32;77.27;100793.59;5086352;28;20040;-84
2022/10/11 10:05:16;;;;;;;25.70;10.63;;;;;;;15.32;77.39;100793.59;5070431;28;20049;-84
2022/10/11 10:08:03;;;;;;;26.45;10.90;;;;;;;15.44;77.89;100780.06;5061957;28;20045;-84
2022/10/11 10:10:37;;;;;;;20.70;10.23;;;;;;;15.50;77.30;100784.84;5073007;28;20477;-84
2022/10/11 10:13:35;;;;;;;24.63;11.27;;;;;;;15.41;77.33;100782.03;5054243;28;20044;-84
2022/10/11 10:16:04;;;;;;;20.30;10.27;;;;;;;15.52;77.68;100782.84;5065358;28;20110;-84
2022/10/11 10:18:41;;;;;;;18.50;9.65;;;;;;;15.45;76.85;100782.59;5049320;28;20060;-84
2022/10/11 10:21:12;;;;;;;24.45;9.88;;;;;;;15.43;77.25;100789.09;5088261;28;20475;-84
2022/10/11 10:23:39;;;;;;;20.25;9.77;;;;;;;15.55;76.88;100785.25;5069770;28;20048;-84
2022/10/11 10:26:16;;;;;;;20.90;10.05;;;;;;;15.52;76.32;100783.72;5066822;28;20041;-84
2022/10/11 10:28:58;;;;;;;18.77;9.45;;;;;;;15.40;75.20;100791.03;5076846;28;20047;-84
2022/10/11 10:31:32;;;;;;;19.98;9.32;;;;;;;15.47;76.03;100777.94;5069820;28;20480;-84
2022/10/11 10:34:30;;;;;;;18.15;9.45;;;;;;;15.44;75.26;100782.72;5067512;28;20384;-84
2022/10/11 10:37:03;;;;;;;23.55;9.93;;;;;;;15.55;75.51;100782.56;5052915;28;20045;-84
2022/10/11 10:39:41;;;;;;;22.45;9.18;;;;;;;15.64;76.53;100790.56;5067643;28;20502;-84
2022/10/11 10:42:14;;;;;;;18.42;9.02;;;;;;;15.61;76.24;100777.47;5057285;28;20050;-84
2022/10/11 10:44:42;;;;;;;16.70;8.52;;;;;;;15.68;76.59;100774.22;5073363;28;20495;-84
2022/10/11 10:47:14;;;;;;;20.77;9.57;;;;;;;15.68;75.67;100774.22;5070077;28;20063;-84
2022/10/11 10:49:44;;;;;;;21.08;9.18;;;;;;;15.72;76.54;100781.00;5057664;28;20056;-84
2022/10/11 10:52:30;;;;;;;22.77;10.27;;;;;;;15.65;76.66;100778.03;5069077;28;20040;-84
2022/10/11 10:55:21;;;;;;;20.77;8.82;;;;;;;15.60;76.12;100774.94;5088648;28;20047;-84
2022/10/11 10:58:32;;;;;;;15.65;8.27;;;;;;;15.57;76.31;100773.41;5057336;28;20044;-84
2022/10/11 11:01:02;;;;;;;18.17;9.50;;;;;;;15.53;75.71;100776.53;4978515;28;20049;-84
2022/10/11 11:03:35;;;;;;;22.67;9.57;;;;;;;15.54;75.97;100772.84;5027673;28;20059;-84
2022/10/11 11:06:06;;;;;;;16.77;7.88;;;;;;;15.67;76.49;100770.69;5088636;28;20036;-86
2022/10/11 11:08:45;;;;;;;20.35;9.52;;;;;;;15.82;76.20;100777.31;5067659;28;20044;-86
2022/10/11 11:11:25;;;;;;;22.08;9.35;;;;;;;15.65;74.85;100770.00;5072096;28;20044;-86
2022/10/11 11:14:18;;;;;;;19.17;10.13;;;;;;;15.68;74.99;100776.91;5092399;28;20483;-86
2022/10/11 11:17:11;;;;;;;22.60;8.98;;;;;;;15.62;74.94;100767.59;5042715;28;20055;-85
2022/10/11 11:20:01;;;;;;;21.08;9.18;;;;;;;15.67;74.73;100768.00;5059584;28;20060;-84
2022/10/11 11:22:56;;;;;;;24.67;10.15;;;;;;;15.69;74.05;100765.19;5071962;28;20051;-84
2022/10/11 11:25:46;;;;;;;23.08;8.85;;;;;;;15.70;74.04;100765.09;5088649;28;20124;-84
2022/10/11 11:28:22;;;;;;;20.90;10.57;;;;;;;15.77;74.80;100760.84;5073423;28;20052;-85
2022/10/11 11:31:13;;;;;;;20.55;7.65;;;;;;;15.80;74.77;100754.34;5072859;28;20525;-85
2022/10/11 11:34:05;;;;;;;18.05;6.88;;;;;;;15.91;75.22;100754.16;5076771;28;20048;-89
2022/10/11 11:36:45;;;;;;;21.98;8.68;;;;;;;15.94;74.99;100764.56;5067252;28;20052;-89
2022/10/11 11:39:26;;;;;;;18.63;8.07;;;;;;;15.93;74.66;100756.69;5045243;28;20055;-89
2022/10/11 11:42:11;;;;;;;18.58;9.23;;;;;;;15.86;75.64;100758.28;5071774;28;20036;-86
2022/10/11 11:44:50;;;;;;;20.27;9.20;;;;;;;15.88;74.72;100757.13;5073882;28;20055;-87
2022/10/11 11:47:34;;;;;;;24.13;10.13;;;;;;;15.71;74.58;100750.69;5056909;28;20543;-87
2022/10/11 11:50:21;;;;;;;20.52;8.80;;;;;;;15.74;74.87;100753.06;5071135;28;20059;-87
2022/10/11 11:53:15;;;;;;;23.08;9.15;;;;;;;15.68;75.26;100753.66;5035791;28;20097;-88
2022/10/11 11:55:48;;;;;;;22.42;9.10;;;;;;;15.78;75.56;100751.81;5052972;28;20442;-87
2022/10/11 11:58:43;;;;;;;21.75;8.75;;;;;;;15.72;75.24;100752.41;5071612;28;20055;-87
2022/10/11 12:01:22;;;;;;;23.58;8.88;;;;;;;15.70;75.12;100749.03;5045242;28;20044;-87
2022/10/11 12:04:02;;;;;;;24.27;7.85;;;;;;;15.72;75.11;100740.81;5077582;28;20056;-87
2022/10/11 12:06:35;;;;;;;15.40;7.15;;;;;;;15.76;75.31;100745.75;5065431;28;20040;-87
2022/10/11 12:09:20;;;;;;;17.40;8.77;;;;;;;15.82;75.51;100749.66;5056449;28;20543;-87
2022/10/11 12:11:59;;;;;;;21.08;8.65;;;;;;;15.78;74.58;100750.97;5058249;28;20059;-87
2022/10/11 12:14:32;;;;;;;22.33;8.98;;;;;;;15.81;74.40;100740.78;5075555;28;20687;-87
2022/10/11 12:17:21;;;;;;;23.48;7.70;;;;;;;15.77;74.77;100743.91;5068945;28;20448;-87
2022/10/11 12:20:00;;;;;;;22.48;8.48;;;;;;;15.82;74.51;100745.19;5056260;28;20465;-87
2022/10/11 12:22:27;;;;;;;16.48;8.43;;;;;;;15.90;74.82;100740.88;5087959;28;20513;-87
2022/10/11 12:25:13;;;;;;;18.30;7.63;;;;;;;15.87;74.64;100744.72;5052804;28;20094;-87
2022/10/11 12:27:45;;;;;;;14.13;7.50;;;;;;;16.00;74.32;100737.19;5065193;28;20060;-87
2022/10/11 12:30:43;;;;;;;20.25;6.57;;;;;;;16.00;74.38;100726.47;5087683;28;20098;-87
2022/10/11 12:33:23;;;;;;;16.67;6.25;;;;;;;16.16;74.00;100716.94;5082907;28;20032;-87
2022/10/11 12:35:50;;;;;;;19.40;6.15;;;;;;;16.25;73.89;100722.22;5050105;28;20045;-87
2022/10/11 12:38:34;;;;;;;20.98;8.70;;;;;;;16.21;72.75;100722.69;5057131;28;20052;-87
2022/10/11 12:41:12;;;;;;;17.48;6.78;;;;;;;16.12;73.05;100726.25;5053568;28;20058;-88
2022/10/11 12:43:47;;;;;;;18.98;7.28;;;;;;;16.11;73.23;100714.72;5072179;28;20064;-88
2022/10/11 12:46:32;;;;;;;16.58;6.90;;;;;;;16.08;72.77;100712.34;5072167;28;20623;-87
2022/10/11 12:49:11;;;;;;;21.70;7.55;;;;;;;16.17;73.26;100716.78;5057451;28;20575;-88
2022/10/11 12:51:54;;;;;;;15.85;6.45;;;;;;;16.21;72.84;100714.66;5043814;28;20098;-88
2022/10/11 12:54:41;;;;;;;13.63;6.18;;;;;;;16.19;72.63;100706.75;5069265;28;20144;-88
2022/10/11 12:57:10;;;;;;;14.38;6.50;;;;;;;16.28;72.51;100702.31;5062705;28;20048;-87
2022/10/11 12:59:43;;;;;;;20.67;6.75;;;;;;;16.22;71.90;100711.81;5070356;28;20067;-87
2022/10/11 13:02:38;;;;;;;18.15;7.03;;;;;;;16.15;71.71;100710.72;5041026;28;20056;-87
2022/10/11 13:05:15;;;;;;;15.75;7.05;;;;;;;16.20;71.98;100712.94;5043634;28;20101;-88
2022/10/11 13:07:42;;;;;;;22.10;7.18;;;;;;;16.20;72.32;100702.22;5087049;28;20037;-88
2022/10/11 13:10:14;;;;;;;16.27;6.40;;;;;;;16.20;72.37;100699.56;5038183;28;20114;-88
2022/10/11 13:12:42;;;;;;;17.95;7.45;;;;;;;16.25;72.62;100710.66;5052155;28;20052;-87
2022/10/11 13:15:14;;;;;;;16.10;6.90;;;;;;;16.30;72.50;100707.53;5055850;28;20449;-88
2022/10/11 13:17:42;;;;;;;13.23;6.25;;;;;;;16.39;73.01;100709.31;5063088;28;20105;-87
2022/10/11 13:20:19;;;;;;;17.02;6.90;;;;;;;16.38;72.59;100711.13;5068998;28;20055;-87
2022/10/11 13:22:49;;;;;;;16.73;6.75;;;;;;;16.45;72.47;100716.75;5041991;28;20097;-88
2022/10/11 13:25:21;;;;;;;16.38;6.95;;;;;;;16.42;72.06;100701.81;5055190;28;20044;-88
2022/10/11 13:27:49;;;;;;;20.10;7.50;;;;;;;16.47;72.47;100707.53;5070608;28;20045;-88
2022/10/11 13:30:27;;;;;;;18.20;7.03;;;;;;;16.49;72.41;100704.72;5071921;28;20032;-87
2022/10/11 13:32:54;;;;;;;18.40;6.57;;;;;;;16.56;72.83;100705.78;5057389;28;20050;-87
2022/10/11 13:35:35;;;;;;;17.23;5.95;;;;;;;16.51;72.37;100700.03;5061104;28;20104;-87
2022/10/11 13:38:04;;;;;;;16.17;6.70;;;;;;;16.60;72.49;100709.84;5052222;28;20407;-87
2022/10/11 13:40:30;;;;;;;15.77;7.38;;;;;;;16.54;72.15;100699.75;5043719;28;20052;-87
2022/10/11 13:42:58;;;;;;;18.23;6.65;;;;;;;16.53;72.05;100702.56;5059460;28;20069;-87
2022/10/11 13:45:29;;;;;;;12.75;6.90;;;;;;;16.52;72.29;100698.22;5064332;28;20048;-87
2022/10/11 13:47:56;;;;;;;17.95;7.65;;;;;;;16.51;71.83;100705.38;5078379;28;20036;-86
2022/10/11 13:50:32;;;;;;;15.55;6.93;;;;;;;16.48;71.78;100698.50;5068739;28;20048;-86
2022/10/11 13:53:20;;;;;;;15.55;7.03;;;;;;;16.53;72.11;100703.41;5077852;28;20380;-86
2022/10/11 13:55:52;;;;;;;21.73;7.10;;;;;;;16.57;72.42;100701.28;5071171;28;20081;-86
2022/10/11 13:58:25;;;;;;;22.30;7.90;;;;;;;16.58;72.25;100700.28;5077391;28;20044;-87
2022/10/11 14:00:54;;;;;;;17.70;6.68;;;;;;;16.55;71.89;100708.63;5089682;28;20048;-86
2022/10/11 14:03:21;;;;;;;18.85;7.50;;;;;;;16.55;71.77;100701.41;5087738;28;20608;-87
2022/10/11 14:05:58;;;;;;;17.00;7.20;;;;;;;16.47;71.51;100698.66;5049682;28;20052;-87
2022/10/11 14:08:57;;;;;;;17.33;6.93;;;;;;;16.40;71.65;100708.31;5066000;28;20496;-87
2022/10/11 14:11:35;;;;;;;25.00;8.52;;;;;;;16.47;71.54;100698.66;5038420;28;20036;-87
2022/10/11 14:14:29;;;;;;;20.33;7.00;;;;;;;16.43;71.72;100700.78;5074464;28;20159;-87
2022/10/11 14:17:03;;;;;;;19.40;7.25;;;;;;;16.55;72.04;100703.25;5090613;28;20388;-87
2022/10/11 14:19:31;;;;;;;26.20;7.63;;;;;;;16.57;72.27;100701.28;5058076;28;20048;-86
2022/10/11 14:21:58;;;;;;;22.23;7.22;;;;;;;16.60;71.81;100706.31;5072514;28;20048;-86
2022/10/11 14:24:25;;;;;;;16.27;6.78;;;;;;;16.61;71.90;100705.31;5044475;28;20044;-87
2022/10/11 14:26:53;;;;;;;19.52;7.07;;;;;;;16.59;71.54;100702.81;5057216;28;20138;-87
2022/10/11 14:29:31;;;;;;;16.40;6.20;;;;;;;16.52;71.25;100707.09;5058655;28;20036;-87
2022/10/11 14:32:04;;;;;;;15.40;6.82;;;;;;;16.55;71.47;100700.59;5055872;28;20136;-86
2022/10/11 14:34:31;;;;;;;14.25;6.40;;;;;;;16.56;71.69;100705.78;5069247;28;20180;-86
2022/10/11 14:37:00;;;;;;;15.85;6.72;;;;;;;16.55;71.51;100698.75;5051404;28;20041;-86
2022/10/11 14:39:29;;;;;;;15.05;6.07;;;;;;;16.56;71.52;100703.09;5043810;28;20504;-86